sensor_id;sensor_type;location;lat;lon;timestamp;P1;durP1;ratioP1;P2;durP2;ratioP2
20411;SDS011;10365;52.578;8.138;2023-08-06T00:01:11;20.10;;;11.98;;
20411;SDS011;10365;52.578;8.138;2023-08-06T00:03:37;14.57;;;11.38;;
20411;SDS011;10365;52.578;8.138;2023-08-06T00:06:02;17.00;;;13.25;;
20411;SDS011;10365;52.578;8.138;2023-08-06T00:08:29;15.48;;;12.30;;
20411;SDS011;10365;52.578;8.138;2023-08-06T00:10:55;18.27;;;13.13;;
20411;SDS011;10365;52.578;8.138;2023-08-06T00:13:20;17.42;;;13.02;;
20411;SDS011;10365;52.578;8.138;2023-08-06T00:15:45;20.88;;;13.95;;
20411;SDS011;10365;52.578;8.138;2023-08-06T00:18:11;23.98;;;13.70;;
20411;SDS011;10365;52.578;8.138;2023-08-06T00:20:38;22.48;;;14.43;;
20411;SDS011;10365;52.578;8.138;2023-08-06T00:23:03;22.50;;;14.68;;
20411;SDS011;10365;52.578;8.138;2023-08-06T00:25:29;22.30;;;14.43;;
20411;SDS011;10365;52.578;8.138;2023-08-06T00:27:54;21.08;;;14.02;;
20411;SDS011;10365;52.578;8.138;2023-08-06T00:30:21;21.15;;;13.63;;
20411;SDS011;10365;52.578;8.138;2023-08-06T00:32:47;17.50;;;13.23;;
20411;SDS011;10365;52.578;8.138;2023-08-06T00:35:12;18.38;;;13.30;;
20411;SDS011;10365;52.578;8.138;2023-08-06T00:37:39;20.75;;;14.60;;
20411;SDS011;10365;52.578;8.138;2023-08-06T00:40:05;20.52;;;14.60;;
20411;SDS011;10365;52.578;8.138;2023-08-06T00:42:30;19.42;;;14.85;;
20411;SDS011;10365;52.578;8.138;2023-08-06T00:44:56;20.10;;;15.13;;
20411;SDS011;10365;52.578;8.138;2023-08-06T00:47:21;26.63;;;15.98;;
20411;SDS011;10365;52.578;8.138;2023-08-06T00:49:47;22.92;;;16.40;;
20411;SDS011;10365;52.578;8.138;2023-08-06T00:52:12;22.13;;;16.08;;
20411;SDS011;10365;52.578;8.138;2023-08-06T00:54:39;23.77;;;15.40;;
20411;SDS011;10365;52.578;8.138;2023-08-06T00:57:04;20.48;;;14.73;;
20411;SDS011;10365;52.578;8.138;2023-08-06T00:59:31;22.70;;;15.75;;
20411;SDS011;10365;52.578;8.138;2023-08-06T01:01:56;23.35;;;16.38;;
20411;SDS011;10365;52.578;8.138;2023-08-06T01:04:22;22.00;;;15.63;;
20411;SDS011;10365;52.578;8.138;2023-08-06T01:06:48;24.92;;;16.40;;
20411;SDS011;10365;52.578;8.138;2023-08-06T01:11:53;26.33;;;17.77;;
20411;SDS011;10365;52.578;8.138;2023-08-06T01:16:51;22.10;;;15.68;;
20411;SDS011;10365;52.578;8.138;2023-08-06T01:19:20;26.65;;;16.40;;
20411;SDS011;10365;52.578;8.138;2023-08-06T01:21:45;23.77;;;16.80;;
20411;SDS011;10365;52.578;8.138;2023-08-06T01:24:11;20.33;;;15.63;;
20411;SDS011;10365;52.578;8.138;2023-08-06T01:31:36;23.52;;;16.35;;
20411;SDS011;10365;52.578;8.138;2023-08-06T01:34:03;22.33;;;15.82;;
20411;SDS011;10365;52.578;8.138;2023-08-06T01:36:29;22.20;;;16.30;;
20411;SDS011;10365;52.578;8.138;2023-08-06T01:38:55;21.38;;;15.38;;
20411;SDS011;10365;52.578;8.138;2023-08-06T01:41:22;20.42;;;15.13;;
20411;SDS011;10365;52.578;8.138;2023-08-06T01:43:47;24.15;;;15.38;;
20411;SDS011;10365;52.578;8.138;2023-08-06T01:46:13;19.75;;;13.82;;
20411;SDS011;10365;52.578;8.138;2023-08-06T01:48:38;19.17;;;13.35;;
20411;SDS011;10365;52.578;8.138;2023-08-06T01:51:04;17.95;;;13.80;;
20411;SDS011;10365;52.578;8.138;2023-08-06T01:53:30;17.77;;;13.18;;
20411;SDS011;10365;52.578;8.138;2023-08-06T01:55:56;16.73;;;12.65;;
20411;SDS011;10365;52.578;8.138;2023-08-06T01:58:22;20.17;;;13.77;;
20411;SDS011;10365;52.578;8.138;2023-08-06T02:00:47;18.42;;;13.63;;
20411;SDS011;10365;52.578;8.138;2023-08-06T02:03:12;19.35;;;13.13;;
20411;SDS011;10365;52.578;8.138;2023-08-06T02:05:39;20.85;;;13.55;;
20411;SDS011;10365;52.578;8.138;2023-08-06T02:08:06;23.50;;;13.95;;
20411;SDS011;10365;52.578;8.138;2023-08-06T02:10:31;22.38;;;14.20;;
20411;SDS011;10365;52.578;8.138;2023-08-06T02:12:57;20.70;;;14.00;;
20411;SDS011;10365;52.578;8.138;2023-08-06T02:15:22;23.88;;;14.10;;
20411;SDS011;10365;52.578;8.138;2023-08-06T02:17:47;19.35;;;14.30;;
20411;SDS011;10365;52.578;8.138;2023-08-06T02:20:13;22.15;;;14.82;;
20411;SDS011;10365;52.578;8.138;2023-08-06T02:22:38;18.00;;;13.45;;
20411;SDS011;10365;52.578;8.138;2023-08-06T02:25:03;20.70;;;14.77;;
20411;SDS011;10365;52.578;8.138;2023-08-06T02:27:29;22.10;;;13.93;;
20411;SDS011;10365;52.578;8.138;2023-08-06T02:29:55;21.20;;;14.38;;
20411;SDS011;10365;52.578;8.138;2023-08-06T02:32:20;20.83;;;14.00;;
20411;SDS011;10365;52.578;8.138;2023-08-06T02:34:45;17.35;;;12.77;;
20411;SDS011;10365;52.578;8.138;2023-08-06T02:37:11;19.63;;;13.70;;
20411;SDS011;10365;52.578;8.138;2023-08-06T02:39:37;16.95;;;12.63;;
20411;SDS011;10365;52.578;8.138;2023-08-06T02:42:08;22.35;;;12.82;;
20411;SDS011;10365;52.578;8.138;2023-08-06T02:44:34;21.80;;;12.98;;
20411;SDS011;10365;52.578;8.138;2023-08-06T02:46:59;19.58;;;13.30;;
20411;SDS011;10365;52.578;8.138;2023-08-06T02:49:25;15.88;;;12.27;;
20411;SDS011;10365;52.578;8.138;2023-08-06T02:51:50;15.85;;;11.57;;
20411;SDS011;10365;52.578;8.138;2023-08-06T02:54:17;18.83;;;12.27;;
20411;SDS011;10365;52.578;8.138;2023-08-06T02:56:43;17.10;;;12.52;;
20411;SDS011;10365;52.578;8.138;2023-08-06T02:59:16;16.77;;;11.20;;
20411;SDS011;10365;52.578;8.138;2023-08-06T03:02:03;18.33;;;11.73;;
20411;SDS011;10365;52.578;8.138;2023-08-06T03:04:38;17.75;;;11.43;;
20411;SDS011;10365;52.578;8.138;2023-08-06T03:07:04;22.88;;;11.98;;
20411;SDS011;10365;52.578;8.138;2023-08-06T03:09:38;23.13;;;12.02;;
20411;SDS011;10365;52.578;8.138;2023-08-06T03:12:03;20.10;;;13.25;;
20411;SDS011;10365;52.578;8.138;2023-08-06T03:14:29;21.45;;;13.10;;
20411;SDS011;10365;52.578;8.138;2023-08-06T03:16:54;17.65;;;12.77;;
20411;SDS011;10365;52.578;8.138;2023-08-06T03:19:20;20.05;;;12.77;;
20411;SDS011;10365;52.578;8.138;2023-08-06T03:21:45;21.08;;;13.15;;
20411;SDS011;10365;52.578;8.138;2023-08-06T03:24:13;22.17;;;13.70;;
20411;SDS011;10365;52.578;8.138;2023-08-06T03:26:39;20.98;;;13.57;;
20411;SDS011;10365;52.578;8.138;2023-08-06T03:29:04;19.55;;;12.20;;
20411;SDS011;10365;52.578;8.138;2023-08-06T03:31:32;18.60;;;12.05;;
20411;SDS011;10365;52.578;8.138;2023-08-06T03:33:58;17.42;;;11.57;;
20411;SDS011;10365;52.578;8.138;2023-08-06T03:36:26;23.73;;;13.02;;
20411;SDS011;10365;52.578;8.138;2023-08-06T03:38:52;18.70;;;12.38;;
20411;SDS011;10365;52.578;8.138;2023-08-06T03:41:17;20.60;;;13.07;;
20411;SDS011;10365;52.578;8.138;2023-08-06T03:43:43;22.67;;;12.98;;
20411;SDS011;10365;52.578;8.138;2023-08-06T03:46:14;35.22;;;14.18;;
20411;SDS011;10365;52.578;8.138;2023-08-06T03:48:40;30.83;;;13.45;;
20411;SDS011;10365;52.578;8.138;2023-08-06T03:51:05;35.55;;;14.73;;
20411;SDS011;10365;52.578;8.138;2023-08-06T03:53:31;22.63;;;13.02;;
20411;SDS011;10365;52.578;8.138;2023-08-06T03:55:57;30.00;;;14.30;;
20411;SDS011;10365;52.578;8.138;2023-08-06T03:58:25;20.77;;;12.63;;
20411;SDS011;10365;52.578;8.138;2023-08-06T04:01:00;25.23;;;14.13;;
20411;SDS011;10365;52.578;8.138;2023-08-06T04:03:30;22.85;;;14.25;;
20411;SDS011;10365;52.578;8.138;2023-08-06T04:05:55;22.73;;;13.73;;
20411;SDS011;10365;52.578;8.138;2023-08-06T04:08:21;28.27;;;15.43;;
20411;SDS011;10365;52.578;8.138;2023-08-06T04:10:50;28.88;;;15.48;;
20411;SDS011;10365;52.578;8.138;2023-08-06T04:13:16;23.25;;;14.75;;
20411;SDS011;10365;52.578;8.138;2023-08-06T04:15:41;27.08;;;15.43;;
20411;SDS011;10365;52.578;8.138;2023-08-06T04:18:07;27.65;;;15.98;;
20411;SDS011;10365;52.578;8.138;2023-08-06T04:20:32;27.80;;;15.77;;
20411;SDS011;10365;52.578;8.138;2023-08-06T04:22:57;26.42;;;15.68;;
20411;SDS011;10365;52.578;8.138;2023-08-06T04:25:23;25.02;;;15.00;;
20411;SDS011;10365;52.578;8.138;2023-08-06T04:27:49;24.70;;;15.07;;
20411;SDS011;10365;52.578;8.138;2023-08-06T04:30:15;29.10;;;15.07;;
20411;SDS011;10365;52.578;8.138;2023-08-06T04:32:41;25.73;;;15.27;;
20411;SDS011;10365;52.578;8.138;2023-08-06T04:35:07;23.98;;;13.98;;
20411;SDS011;10365;52.578;8.138;2023-08-06T04:37:34;29.08;;;14.52;;
20411;SDS011;10365;52.578;8.138;2023-08-06T04:39:59;25.25;;;14.05;;
20411;SDS011;10365;52.578;8.138;2023-08-06T04:42:25;24.30;;;14.75;;
20411;SDS011;10365;52.578;8.138;2023-08-06T04:44:50;25.42;;;15.35;;
20411;SDS011;10365;52.578;8.138;2023-08-06T04:47:16;30.58;;;14.60;;
20411;SDS011;10365;52.578;8.138;2023-08-06T04:49:41;23.63;;;14.52;;
20411;SDS011;10365;52.578;8.138;2023-08-06T04:52:07;25.65;;;15.02;;
20411;SDS011;10365;52.578;8.138;2023-08-06T04:54:32;23.77;;;13.68;;
20411;SDS011;10365;52.578;8.138;2023-08-06T04:56:57;24.92;;;15.68;;
20411;SDS011;10365;52.578;8.138;2023-08-06T04:59:23;27.55;;;15.65;;
20411;SDS011;10365;52.578;8.138;2023-08-06T05:01:48;30.30;;;14.80;;
20411;SDS011;10365;52.578;8.138;2023-08-06T05:04:13;32.63;;;16.35;;
20411;SDS011;10365;52.578;8.138;2023-08-06T05:06:39;26.98;;;16.85;;
20411;SDS011;10365;52.578;8.138;2023-08-06T05:09:05;28.63;;;17.63;;
20411;SDS011;10365;52.578;8.138;2023-08-06T05:11:31;30.33;;;16.80;;
20411;SDS011;10365;52.578;8.138;2023-08-06T05:13:56;25.95;;;16.05;;
20411;SDS011;10365;52.578;8.138;2023-08-06T05:16:22;29.35;;;16.50;;
20411;SDS011;10365;52.578;8.138;2023-08-06T05:18:47;28.80;;;15.45;;
20411;SDS011;10365;52.578;8.138;2023-08-06T05:21:13;27.77;;;15.05;;
20411;SDS011;10365;52.578;8.138;2023-08-06T05:23:38;28.20;;;14.38;;
20411;SDS011;10365;52.578;8.138;2023-08-06T05:26:03;26.05;;;14.40;;
20411;SDS011;10365;52.578;8.138;2023-08-06T05:28:29;25.92;;;13.93;;
20411;SDS011;10365;52.578;8.138;2023-08-06T05:30:54;25.73;;;14.25;;
20411;SDS011;10365;52.578;8.138;2023-08-06T05:33:19;24.60;;;13.27;;
20411;SDS011;10365;52.578;8.138;2023-08-06T05:35:45;30.60;;;14.35;;
20411;SDS011;10365;52.578;8.138;2023-08-06T05:38:10;27.80;;;15.07;;
20411;SDS011;10365;52.578;8.138;2023-08-06T05:40:35;26.67;;;14.43;;
20411;SDS011;10365;52.578;8.138;2023-08-06T05:43:01;26.15;;;14.95;;
20411;SDS011;10365;52.578;8.138;2023-08-06T05:45:26;28.90;;;14.88;;
20411;SDS011;10365;52.578;8.138;2023-08-06T05:47:51;25.10;;;13.45;;
20411;SDS011;10365;52.578;8.138;2023-08-06T05:50:19;23.88;;;14.20;;
20411;SDS011;10365;52.578;8.138;2023-08-06T05:52:44;28.45;;;13.40;;
20411;SDS011;10365;52.578;8.138;2023-08-06T05:55:10;16.55;;;10.98;;
20411;SDS011;10365;52.578;8.138;2023-08-06T05:57:35;19.30;;;10.00;;
20411;SDS011;10365;52.578;8.138;2023-08-06T06:00:01;15.55;;;9.40;;
20411;SDS011;10365;52.578;8.138;2023-08-06T06:02:27;14.65;;;9.13;;
20411;SDS011;10365;52.578;8.138;2023-08-06T06:04:52;12.25;;;8.68;;
20411;SDS011;10365;52.578;8.138;2023-08-06T06:07:18;13.35;;;8.30;;
20411;SDS011;10365;52.578;8.138;2023-08-06T06:09:43;15.93;;;9.10;;
20411;SDS011;10365;52.578;8.138;2023-08-06T06:12:08;13.45;;;8.88;;
20411;SDS011;10365;52.578;8.138;2023-08-06T06:14:34;12.38;;;8.10;;
20411;SDS011;10365;52.578;8.138;2023-08-06T06:16:59;16.27;;;8.02;;
20411;SDS011;10365;52.578;8.138;2023-08-06T06:19:25;14.75;;;8.35;;
20411;SDS011;10365;52.578;8.138;2023-08-06T06:21:51;12.13;;;8.35;;
20411;SDS011;10365;52.578;8.138;2023-08-06T06:24:16;11.18;;;8.07;;
20411;SDS011;10365;52.578;8.138;2023-08-06T06:26:41;11.20;;;7.97;;
20411;SDS011;10365;52.578;8.138;2023-08-06T06:29:07;13.80;;;9.00;;
20411;SDS011;10365;52.578;8.138;2023-08-06T06:31:32;12.10;;;8.60;;
20411;SDS011;10365;52.578;8.138;2023-08-06T06:33:57;16.77;;;8.68;;
20411;SDS011;10365;52.578;8.138;2023-08-06T06:36:23;12.13;;;8.45;;
20411;SDS011;10365;52.578;8.138;2023-08-06T06:38:49;14.35;;;8.73;;
20411;SDS011;10365;52.578;8.138;2023-08-06T06:41:14;14.60;;;9.40;;
20411;SDS011;10365;52.578;8.138;2023-08-06T06:43:39;11.60;;;9.15;;
20411;SDS011;10365;52.578;8.138;2023-08-06T06:46:05;12.32;;;8.50;;
20411;SDS011;10365;52.578;8.138;2023-08-06T06:48:31;10.23;;;8.00;;
20411;SDS011;10365;52.578;8.138;2023-08-06T06:50:57;10.90;;;7.90;;
20411;SDS011;10365;52.578;8.138;2023-08-06T06:53:22;12.20;;;7.38;;
20411;SDS011;10365;52.578;8.138;2023-08-06T06:55:54;11.02;;;7.05;;
20411;SDS011;10365;52.578;8.138;2023-08-06T06:58:19;11.30;;;8.60;;
20411;SDS011;10365;52.578;8.138;2023-08-06T07:00:45;11.10;;;9.10;;
20411;SDS011;10365;52.578;8.138;2023-08-06T07:03:11;19.38;;;11.70;;
20411;SDS011;10365;52.578;8.138;2023-08-06T07:05:36;14.38;;;9.93;;
20411;SDS011;10365;52.578;8.138;2023-08-06T07:08:01;11.73;;;8.30;;
20411;SDS011;10365;52.578;8.138;2023-08-06T07:10:27;10.27;;;7.70;;
20411;SDS011;10365;52.578;8.138;2023-08-06T07:12:52;10.13;;;7.78;;
20411;SDS011;10365;52.578;8.138;2023-08-06T07:15:17;9.98;;;6.55;;
20411;SDS011;10365;52.578;8.138;2023-08-06T07:17:43;7.75;;;6.20;;
20411;SDS011;10365;52.578;8.138;2023-08-06T07:20:09;10.80;;;6.70;;
20411;SDS011;10365;52.578;8.138;2023-08-06T07:22:34;11.38;;;8.55;;
20411;SDS011;10365;52.578;8.138;2023-08-06T07:25:00;8.50;;;7.43;;
20411;SDS011;10365;52.578;8.138;2023-08-06T07:27:25;11.48;;;9.05;;
20411;SDS011;10365;52.578;8.138;2023-08-06T07:29:50;9.35;;;7.72;;
20411;SDS011;10365;52.578;8.138;2023-08-06T07:32:16;8.23;;;6.80;;
20411;SDS011;10365;52.578;8.138;2023-08-06T07:34:41;6.70;;;5.93;;
20411;SDS011;10365;52.578;8.138;2023-08-06T07:37:07;7.07;;;5.43;;
20411;SDS011;10365;52.578;8.138;2023-08-06T07:39:32;7.38;;;6.00;;
20411;SDS011;10365;52.578;8.138;2023-08-06T07:41:57;9.20;;;5.63;;
20411;SDS011;10365;52.578;8.138;2023-08-06T07:44:23;7.20;;;5.60;;
20411;SDS011;10365;52.578;8.138;2023-08-06T07:46:49;8.80;;;6.15;;
20411;SDS011;10365;52.578;8.138;2023-08-06T07:49:14;6.93;;;5.40;;
20411;SDS011;10365;52.578;8.138;2023-08-06T07:51:40;7.10;;;5.63;;
20411;SDS011;10365;52.578;8.138;2023-08-06T07:54:05;7.70;;;5.65;;
20411;SDS011;10365;52.578;8.138;2023-08-06T07:56:31;9.23;;;5.35;;
20411;SDS011;10365;52.578;8.138;2023-08-06T07:58:56;19.92;;;5.85;;
20411;SDS011;10365;52.578;8.138;2023-08-06T08:01:22;9.07;;;4.78;;
20411;SDS011;10365;52.578;8.138;2023-08-06T08:03:47;7.95;;;5.57;;
20411;SDS011;10365;52.578;8.138;2023-08-06T08:06:13;6.57;;;5.70;;
20411;SDS011;10365;52.578;8.138;2023-08-06T08:08:38;5.68;;;4.85;;
20411;SDS011;10365;52.578;8.138;2023-08-06T08:11:04;5.93;;;4.85;;
20411;SDS011;10365;52.578;8.138;2023-08-06T08:13:29;8.35;;;5.22;;
20411;SDS011;10365;52.578;8.138;2023-08-06T08:15:58;6.95;;;4.90;;
20411;SDS011;10365;52.578;8.138;2023-08-06T08:18:23;6.05;;;4.45;;
20411;SDS011;10365;52.578;8.138;2023-08-06T08:20:49;5.40;;;4.65;;
20411;SDS011;10365;52.578;8.138;2023-08-06T08:23:14;6.15;;;5.28;;
20411;SDS011;10365;52.578;8.138;2023-08-06T08:25:40;6.45;;;4.63;;
20411;SDS011;10365;52.578;8.138;2023-08-06T08:28:05;8.00;;;5.85;;
20411;SDS011;10365;52.578;8.138;2023-08-06T08:30:30;5.93;;;5.13;;
20411;SDS011;10365;52.578;8.138;2023-08-06T08:32:56;8.38;;;5.95;;
20411;SDS011;10365;52.578;8.138;2023-08-06T08:35:21;7.90;;;6.22;;
20411;SDS011;10365;52.578;8.138;2023-08-06T08:37:47;6.53;;;5.20;;
20411;SDS011;10365;52.578;8.138;2023-08-06T08:40:13;6.57;;;4.88;;
20411;SDS011;10365;52.578;8.138;2023-08-06T08:42:39;6.97;;;5.60;;
20411;SDS011;10365;52.578;8.138;2023-08-06T08:45:05;4.40;;;3.53;;
20411;SDS011;10365;52.578;8.138;2023-08-06T08:47:33;7.05;;;5.85;;
20411;SDS011;10365;52.578;8.138;2023-08-06T08:49:58;7.40;;;6.30;;
20411;SDS011;10365;52.578;8.138;2023-08-06T08:52:25;7.90;;;6.35;;
20411;SDS011;10365;52.578;8.138;2023-08-06T08:54:53;7.22;;;5.78;;
20411;SDS011;10365;52.578;8.138;2023-08-06T08:57:18;8.25;;;6.68;;
20411;SDS011;10365;52.578;8.138;2023-08-06T08:59:44;7.75;;;6.53;;
20411;SDS011;10365;52.578;8.138;2023-08-06T09:02:10;5.97;;;5.18;;
20411;SDS011;10365;52.578;8.138;2023-08-06T09:04:37;8.38;;;6.13;;
20411;SDS011;10365;52.578;8.138;2023-08-06T09:07:02;6.00;;;4.65;;
20411;SDS011;10365;52.578;8.138;2023-08-06T09:09:30;9.95;;;5.20;;
20411;SDS011;10365;52.578;8.138;2023-08-06T09:11:59;8.32;;;6.00;;
20411;SDS011;10365;52.578;8.138;2023-08-06T09:14:25;6.45;;;4.93;;
20411;SDS011;10365;52.578;8.138;2023-08-06T09:16:51;6.25;;;4.88;;
20411;SDS011;10365;52.578;8.138;2023-08-06T09:19:17;6.43;;;4.60;;
20411;SDS011;10365;52.578;8.138;2023-08-06T09:21:43;7.50;;;4.13;;
20411;SDS011;10365;52.578;8.138;2023-08-06T09:24:09;4.68;;;3.67;;
20411;SDS011;10365;52.578;8.138;2023-08-06T09:26:36;5.68;;;4.80;;
20411;SDS011;10365;52.578;8.138;2023-08-06T09:29:01;5.18;;;4.13;;
20411;SDS011;10365;52.578;8.138;2023-08-06T09:31:33;7.22;;;4.30;;
20411;SDS011;10365;52.578;8.138;2023-08-06T09:33:59;5.75;;;3.92;;
20411;SDS011;10365;52.578;8.138;2023-08-06T09:36:26;5.68;;;3.55;;
20411;SDS011;10365;52.578;8.138;2023-08-06T09:38:52;7.53;;;4.30;;
20411;SDS011;10365;52.578;8.138;2023-08-06T09:41:27;7.32;;;4.07;;
20411;SDS011;10365;52.578;8.138;2023-08-06T09:43:55;7.13;;;4.90;;
20411;SDS011;10365;52.578;8.138;2023-08-06T09:46:20;4.63;;;4.05;;
20411;SDS011;10365;52.578;8.138;2023-08-06T09:48:47;5.70;;;4.07;;
20411;SDS011;10365;52.578;8.138;2023-08-06T09:51:13;7.78;;;4.40;;
20411;SDS011;10365;52.578;8.138;2023-08-06T09:53:40;7.35;;;4.30;;
20411;SDS011;10365;52.578;8.138;2023-08-06T09:56:06;4.80;;;3.70;;
20411;SDS011;10365;52.578;8.138;2023-08-06T09:58:31;5.15;;;3.90;;
20411;SDS011;10365;52.578;8.138;2023-08-06T10:00:58;5.40;;;3.90;;
20411;SDS011;10365;52.578;8.138;2023-08-06T10:03:23;7.82;;;4.50;;
20411;SDS011;10365;52.578;8.138;2023-08-06T10:05:49;6.28;;;4.50;;
20411;SDS011;10365;52.578;8.138;2023-08-06T10:08:14;5.80;;;3.88;;
20411;SDS011;10365;52.578;8.138;2023-08-06T10:10:40;5.60;;;4.03;;
20411;SDS011;10365;52.578;8.138;2023-08-06T10:13:05;4.22;;;3.20;;
20411;SDS011;10365;52.578;8.138;2023-08-06T10:15:32;6.07;;;3.45;;
20411;SDS011;10365;52.578;8.138;2023-08-06T10:17:58;5.90;;;3.30;;
20411;SDS011;10365;52.578;8.138;2023-08-06T10:20:24;5.60;;;4.47;;
20411;SDS011;10365;52.578;8.138;2023-08-06T10:23:05;6.22;;;5.40;;
20411;SDS011;10365;52.578;8.138;2023-08-06T10:25:35;6.85;;;5.65;;
20411;SDS011;10365;52.578;8.138;2023-08-06T10:28:08;9.77;;;6.13;;
20411;SDS011;10365;52.578;8.138;2023-08-06T10:30:41;9.05;;;6.80;;
20411;SDS011;10365;52.578;8.138;2023-08-06T10:33:07;7.00;;;6.30;;
20411;SDS011;10365;52.578;8.138;2023-08-06T10:43:32;9.10;;;7.03;;
20411;SDS011;10365;52.578;8.138;2023-08-06T10:45:59;9.98;;;6.65;;
20411;SDS011;10365;52.578;8.138;2023-08-06T10:48:34;7.32;;;6.60;;
20411;SDS011;10365;52.578;8.138;2023-08-06T10:51:01;7.40;;;6.03;;
20411;SDS011;10365;52.578;8.138;2023-08-06T10:53:27;7.68;;;5.93;;
20411;SDS011;10365;52.578;8.138;2023-08-06T10:55:52;7.47;;;5.47;;
20411;SDS011;10365;52.578;8.138;2023-08-06T10:58:18;10.02;;;4.97;;
20411;SDS011;10365;52.578;8.138;2023-08-06T11:00:43;5.07;;;4.57;;
20411;SDS011;10365;52.578;8.138;2023-08-06T11:03:08;5.78;;;4.55;;
20411;SDS011;10365;52.578;8.138;2023-08-06T11:05:34;6.28;;;4.28;;
20411;SDS011;10365;52.578;8.138;2023-08-06T11:08:00;5.63;;;3.85;;
20411;SDS011;10365;52.578;8.138;2023-08-06T11:10:26;5.32;;;3.60;;
20411;SDS011;10365;52.578;8.138;2023-08-06T11:12:51;4.88;;;3.58;;
20411;SDS011;10365;52.578;8.138;2023-08-06T11:15:16;4.53;;;3.35;;
20411;SDS011;10365;52.578;8.138;2023-08-06T11:17:42;3.58;;;2.90;;
20411;SDS011;10365;52.578;8.138;2023-08-06T11:20:07;4.25;;;3.00;;
20411;SDS011;10365;52.578;8.138;2023-08-06T11:22:33;4.93;;;3.20;;
20411;SDS011;10365;52.578;8.138;2023-08-06T11:24:59;4.80;;;3.10;;
20411;SDS011;10365;52.578;8.138;2023-08-06T11:27:26;4.75;;;3.28;;
20411;SDS011;10365;52.578;8.138;2023-08-06T11:29:53;8.45;;;3.53;;
20411;SDS011;10365;52.578;8.138;2023-08-06T11:32:18;3.45;;;2.90;;
20411;SDS011;10365;52.578;8.138;2023-08-06T11:34:44;3.90;;;2.88;;
20411;SDS011;10365;52.578;8.138;2023-08-06T11:37:09;6.60;;;3.38;;
20411;SDS011;10365;52.578;8.138;2023-08-06T11:39:36;3.83;;;3.00;;
20411;SDS011;10365;52.578;8.138;2023-08-06T11:42:05;4.57;;;3.08;;
20411;SDS011;10365;52.578;8.138;2023-08-06T11:44:31;4.32;;;3.00;;
20411;SDS011;10365;52.578;8.138;2023-08-06T11:46:58;3.30;;;2.75;;
20411;SDS011;10365;52.578;8.138;2023-08-06T11:52:10;4.47;;;3.53;;
20411;SDS011;10365;52.578;8.138;2023-08-06T11:54:37;3.95;;;3.38;;
20411;SDS011;10365;52.578;8.138;2023-08-06T11:57:03;5.03;;;3.00;;
20411;SDS011;10365;52.578;8.138;2023-08-06T11:59:28;6.30;;;3.40;;
20411;SDS011;10365;52.578;8.138;2023-08-06T12:01:53;4.53;;;3.40;;
20411;SDS011;10365;52.578;8.138;2023-08-06T12:04:19;5.63;;;3.25;;
20411;SDS011;10365;52.578;8.138;2023-08-06T12:06:44;4.10;;;2.95;;
20411;SDS011;10365;52.578;8.138;2023-08-06T12:09:09;4.72;;;2.90;;
20411;SDS011;10365;52.578;8.138;2023-08-06T12:11:35;4.05;;;2.60;;
20411;SDS011;10365;52.578;8.138;2023-08-06T12:14:01;4.85;;;3.15;;
20411;SDS011;10365;52.578;8.138;2023-08-06T12:16:27;4.70;;;3.33;;
20411;SDS011;10365;52.578;8.138;2023-08-06T12:18:53;3.92;;;3.28;;
20411;SDS011;10365;52.578;8.138;2023-08-06T12:21:18;6.68;;;3.60;;
20411;SDS011;10365;52.578;8.138;2023-08-06T12:23:43;3.85;;;3.30;;
20411;SDS011;10365;52.578;8.138;2023-08-06T12:26:09;5.03;;;3.40;;
20411;SDS011;10365;52.578;8.138;2023-08-06T12:28:34;4.57;;;3.63;;
20411;SDS011;10365;52.578;8.138;2023-08-06T12:30:59;4.00;;;3.60;;
20411;SDS011;10365;52.578;8.138;2023-08-06T12:33:25;6.45;;;4.10;;
20411;SDS011;10365;52.578;8.138;2023-08-06T12:35:50;4.88;;;3.08;;
20411;SDS011;10365;52.578;8.138;2023-08-06T12:38:19;5.03;;;3.40;;
20411;SDS011;10365;52.578;8.138;2023-08-06T12:40:44;3.15;;;2.83;;
20411;SDS011;10365;52.578;8.138;2023-08-06T12:43:10;5.32;;;2.85;;
20411;SDS011;10365;52.578;8.138;2023-08-06T12:45:35;4.32;;;2.97;;
20411;SDS011;10365;52.578;8.138;2023-08-06T12:48:00;5.93;;;2.63;;
20411;SDS011;10365;52.578;8.138;2023-08-06T12:50:26;3.25;;;2.15;;
20411;SDS011;10365;52.578;8.138;2023-08-06T12:52:51;5.00;;;2.50;;
20411;SDS011;10365;52.578;8.138;2023-08-06T12:55:17;5.18;;;2.22;;
20411;SDS011;10365;52.578;8.138;2023-08-06T12:57:42;6.72;;;2.40;;
20411;SDS011;10365;52.578;8.138;2023-08-06T13:00:08;3.10;;;2.30;;
20411;SDS011;10365;52.578;8.138;2023-08-06T13:02:33;3.05;;;2.35;;
20411;SDS011;10365;52.578;8.138;2023-08-06T13:04:58;3.75;;;2.35;;
20411;SDS011;10365;52.578;8.138;2023-08-06T13:07:24;3.45;;;2.67;;
20411;SDS011;10365;52.578;8.138;2023-08-06T13:09:50;3.78;;;2.60;;
20411;SDS011;10365;52.578;8.138;2023-08-06T13:12:16;5.32;;;2.47;;
20411;SDS011;10365;52.578;8.138;2023-08-06T13:14:44;3.53;;;3.13;;
20411;SDS011;10365;52.578;8.138;2023-08-06T13:17:09;6.13;;;2.80;;
20411;SDS011;10365;52.578;8.138;2023-08-06T13:19:35;4.45;;;2.70;;
20411;SDS011;10365;52.578;8.138;2023-08-06T13:22:01;5.88;;;2.83;;
20411;SDS011;10365;52.578;8.138;2023-08-06T13:24:27;3.90;;;2.88;;
20411;SDS011;10365;52.578;8.138;2023-08-06T13:26:53;3.80;;;3.15;;
20411;SDS011;10365;52.578;8.138;2023-08-06T13:29:18;4.88;;;3.42;;
20411;SDS011;10365;52.578;8.138;2023-08-06T13:31:43;3.72;;;3.22;;
20411;SDS011;10365;52.578;8.138;2023-08-06T13:34:09;4.40;;;2.90;;
20411;SDS011;10365;52.578;8.138;2023-08-06T13:36:34;3.97;;;3.15;;
20411;SDS011;10365;52.578;8.138;2023-08-06T13:38:59;8.68;;;3.33;;
20411;SDS011;10365;52.578;8.138;2023-08-06T13:41:25;5.55;;;3.80;;
20411;SDS011;10365;52.578;8.138;2023-08-06T13:43:50;7.28;;;3.55;;
20411;SDS011;10365;52.578;8.138;2023-08-06T13:46:17;8.35;;;3.63;;
20411;SDS011;10365;52.578;8.138;2023-08-06T13:48:44;4.13;;;3.70;;
20411;SDS011;10365;52.578;8.138;2023-08-06T13:51:10;4.20;;;3.30;;
20411;SDS011;10365;52.578;8.138;2023-08-06T13:53:36;4.40;;;3.50;;
20411;SDS011;10365;52.578;8.138;2023-08-06T13:56:02;4.05;;;3.38;;
20411;SDS011;10365;52.578;8.138;2023-08-06T13:58:28;6.95;;;3.15;;
20411;SDS011;10365;52.578;8.138;2023-08-06T14:00:53;4.35;;;3.20;;
20411;SDS011;10365;52.578;8.138;2023-08-06T14:03:19;4.15;;;2.88;;
20411;SDS011;10365;52.578;8.138;2023-08-06T14:05:45;3.53;;;3.15;;
20411;SDS011;10365;52.578;8.138;2023-08-06T14:08:10;3.30;;;2.53;;
20411;SDS011;10365;52.578;8.138;2023-08-06T14:10:35;4.43;;;2.90;;
20411;SDS011;10365;52.578;8.138;2023-08-06T14:13:01;3.45;;;2.83;;
20411;SDS011;10365;52.578;8.138;2023-08-06T14:15:26;3.42;;;2.95;;
20411;SDS011;10365;52.578;8.138;2023-08-06T14:17:53;3.03;;;2.72;;
20411;SDS011;10365;52.578;8.138;2023-08-06T14:20:18;3.97;;;3.00;;
20411;SDS011;10365;52.578;8.138;2023-08-06T14:22:44;3.40;;;3.10;;
20411;SDS011;10365;52.578;8.138;2023-08-06T14:25:09;5.05;;;2.60;;
20411;SDS011;10365;52.578;8.138;2023-08-06T14:27:34;2.80;;;2.40;;
20411;SDS011;10365;52.578;8.138;2023-08-06T14:30:00;2.95;;;2.60;;
20411;SDS011;10365;52.578;8.138;2023-08-06T14:32:28;2.70;;;2.28;;
20411;SDS011;10365;52.578;8.138;2023-08-06T14:34:53;3.33;;;2.38;;
20411;SDS011;10365;52.578;8.138;2023-08-06T14:37:18;2.33;;;1.95;;
20411;SDS011;10365;52.578;8.138;2023-08-06T14:39:44;2.20;;;2.00;;
20411;SDS011;10365;52.578;8.138;2023-08-06T14:42:09;2.95;;;1.90;;
20411;SDS011;10365;52.578;8.138;2023-08-06T14:44:34;3.22;;;1.70;;
20411;SDS011;10365;52.578;8.138;2023-08-06T14:47:00;3.17;;;1.55;;
20411;SDS011;10365;52.578;8.138;2023-08-06T14:49:25;2.47;;;1.70;;